sensor_id;sensor_type;location;lat;lon;timestamp;P1;durP1;ratioP1;P2;durP2;ratioP2
61473;SDS011;53694;49.784;30.150;2023-04-07T00:00:10;4.94;;;3.32;;
61473;SDS011;53694;49.784;30.150;2023-04-07T00:01:12;5.64;;;3.55;;
61473;SDS011;53694;49.784;30.150;2023-04-07T00:02:14;4.40;;;3.09;;
61473;SDS011;53694;49.784;30.150;2023-04-07T00:03:15;8.76;;;4.74;;
61473;SDS011;53694;49.784;30.150;2023-04-07T00:04:17;4.63;;;3.00;;
61473;SDS011;53694;49.784;30.150;2023-04-07T00:05:18;6.75;;;3.03;;
61473;SDS011;53694;49.784;30.150;2023-04-07T00:06:20;3.39;;;2.17;;
61473;SDS011;53694;49.784;30.150;2023-04-07T00:07:22;3.87;;;2.36;;
61473;SDS011;53694;49.784;30.150;2023-04-07T00:08:23;3.58;;;1.92;;
61473;SDS011;53694;49.784;30.150;2023-04-07T00:09:25;3.41;;;2.05;;
61473;SDS011;53694;49.784;30.150;2023-04-07T00:10:26;3.66;;;2.08;;
61473;SDS011;53694;49.784;30.150;2023-04-07T00:11:28;3.36;;;1.96;;
61473;SDS011;53694;49.784;30.150;2023-04-07T00:12:29;3.42;;;2.04;;
61473;SDS011;53694;49.784;30.150;2023-04-07T00:13:31;3.67;;;2.23;;
61473;SDS011;53694;49.784;30.150;2023-04-07T00:14:32;3.61;;;2.21;;
61473;SDS011;53694;49.784;30.150;2023-04-07T00:15:34;6.29;;;3.49;;
61473;SDS011;53694;49.784;30.150;2023-04-07T00:16:35;4.12;;;2.48;;
61473;SDS011;53694;49.784;30.150;2023-04-07T00:17:37;6.59;;;3.29;;
61473;SDS011;53694;49.784;30.150;2023-04-07T00:18:38;5.61;;;3.32;;
61473;SDS011;53694;49.784;30.150;2023-04-07T00:19:40;5.05;;;3.23;;
61473;SDS011;53694;49.784;30.150;2023-04-07T00:20:42;4.23;;;2.80;;
61473;SDS011;53694;49.784;30.150;2023-04-07T00:21:43;5.03;;;3.19;;
61473;SDS011;53694;49.784;30.150;2023-04-07T00:22:45;4.52;;;3.27;;
61473;SDS011;53694;49.784;30.150;2023-04-07T00:23:46;6.26;;;3.41;;
61473;SDS011;53694;49.784;30.150;2023-04-07T00:24:48;4.68;;;3.11;;
61473;SDS011;53694;49.784;30.150;2023-04-07T00:25:49;3.91;;;2.26;;
61473;SDS011;53694;49.784;30.150;2023-04-07T00:26:51;5.03;;;2.58;;
61473;SDS011;53694;49.784;30.150;2023-04-07T00:27:52;3.09;;;1.91;;
61473;SDS011;53694;49.784;30.150;2023-04-07T00:28:54;3.84;;;2.49;;
61473;SDS011;53694;49.784;30.150;2023-04-07T00:29:55;3.80;;;2.02;;
61473;SDS011;53694;49.784;30.150;2023-04-07T00:30:57;5.44;;;2.61;;
61473;SDS011;53694;49.784;30.150;2023-04-07T00:31:59;4.01;;;2.36;;
61473;SDS011;53694;49.784;30.150;2023-04-07T00:33:00;4.26;;;2.59;;
61473;SDS011;53694;49.784;30.150;2023-04-07T00:34:02;3.75;;;2.24;;
61473;SDS011;53694;49.784;30.150;2023-04-07T00:35:04;4.67;;;2.80;;
61473;SDS011;53694;49.784;30.150;2023-04-07T00:36:06;3.58;;;2.27;;
61473;SDS011;53694;49.784;30.150;2023-04-07T00:37:07;4.45;;;2.26;;
61473;SDS011;53694;49.784;30.150;2023-04-07T00:38:09;3.65;;;2.09;;
61473;SDS011;53694;49.784;30.150;2023-04-07T00:39:11;5.19;;;2.64;;
61473;SDS011;53694;49.784;30.150;2023-04-07T00:40:13;4.64;;;2.78;;
61473;SDS011;53694;49.784;30.150;2023-04-07T00:41:14;5.19;;;3.31;;
61473;SDS011;53694;49.784;30.150;2023-04-07T00:42:16;4.52;;;2.67;;
61473;SDS011;53694;49.784;30.150;2023-04-07T00:43:18;4.73;;;2.87;;
61473;SDS011;53694;49.784;30.150;2023-04-07T00:44:20;4.39;;;2.81;;
61473;SDS011;53694;49.784;30.150;2023-04-07T00:45:21;4.56;;;2.88;;
61473;SDS011;53694;49.784;30.150;2023-04-07T00:46:23;4.73;;;2.69;;
61473;SDS011;53694;49.784;30.150;2023-04-07T00:47:24;3.97;;;2.16;;
61473;SDS011;53694;49.784;30.150;2023-04-07T00:48:26;3.46;;;1.94;;
61473;SDS011;53694;49.784;30.150;2023-04-07T00:49:28;5.21;;;2.50;;
61473;SDS011;53694;49.784;30.150;2023-04-07T00:50:29;2.81;;;1.74;;
61473;SDS011;53694;49.784;30.150;2023-04-07T00:51:31;3.06;;;1.64;;
61473;SDS011;53694;49.784;30.150;2023-04-07T00:52:33;3.12;;;1.64;;
61473;SDS011;53694;49.784;30.150;2023-04-07T00:53:34;3.80;;;2.04;;
61473;SDS011;53694;49.784;30.150;2023-04-07T00:54:36;3.91;;;2.50;;
61473;SDS011;53694;49.784;30.150;2023-04-07T00:55:39;4.27;;;2.57;;
61473;SDS011;53694;49.784;30.150;2023-04-07T00:56:41;4.55;;;2.82;;
61473;SDS011;53694;49.784;30.150;2023-04-07T00:57:42;4.08;;;2.69;;
61473;SDS011;53694;49.784;30.150;2023-04-07T00:58:44;5.87;;;3.08;;
61473;SDS011;53694;49.784;30.150;2023-04-07T00:59:46;5.13;;;2.95;;
61473;SDS011;53694;49.784;30.150;2023-04-07T01:00:48;5.37;;;3.37;;
61473;SDS011;53694;49.784;30.150;2023-04-07T01:03:00;4.81;;;3.17;;
61473;SDS011;53694;49.784;30.150;2023-04-07T01:04:08;5.13;;;2.97;;
61473;SDS011;53694;49.784;30.150;2023-04-07T01:05:13;5.35;;;3.37;;
61473;SDS011;53694;49.784;30.150;2023-04-07T01:06:17;4.64;;;2.99;;
61473;SDS011;53694;49.784;30.150;2023-04-07T01:07:23;5.18;;;3.17;;
61473;SDS011;53694;49.784;30.150;2023-04-07T01:09:37;3.64;;;2.10;;
61473;SDS011;53694;49.784;30.150;2023-04-07T01:12:04;3.15;;;2.11;;
61473;SDS011;53694;49.784;30.150;2023-04-07T01:13:16;3.79;;;2.12;;
61473;SDS011;53694;49.784;30.150;2023-04-07T01:14:17;5.40;;;2.29;;
61473;SDS011;53694;49.784;30.150;2023-04-07T01:15:20;3.79;;;2.02;;
61473;SDS011;53694;49.784;30.150;2023-04-07T01:16:31;3.69;;;2.08;;
61473;SDS011;53694;49.784;30.150;2023-04-07T01:17:39;4.21;;;2.54;;
61473;SDS011;53694;49.784;30.150;2023-04-07T01:18:46;4.07;;;2.39;;
61473;SDS011;53694;49.784;30.150;2023-04-07T01:20:04;3.92;;;2.58;;
61473;SDS011;53694;49.784;30.150;2023-04-07T01:21:05;3.79;;;2.46;;
61473;SDS011;53694;49.784;30.150;2023-04-07T01:22:13;4.21;;;2.65;;
61473;SDS011;53694;49.784;30.150;2023-04-07T01:23:27;5.86;;;3.18;;
61473;SDS011;53694;49.784;30.150;2023-04-07T01:26:33;7.51;;;3.66;;
61473;SDS011;53694;49.784;30.150;2023-04-07T01:29:48;4.94;;;3.28;;
61473;SDS011;53694;49.784;30.150;2023-04-07T01:30:52;7.14;;;3.20;;
61473;SDS011;53694;49.784;30.150;2023-04-07T01:31:57;5.48;;;3.24;;
61473;SDS011;53694;49.784;30.150;2023-04-07T01:33:00;4.52;;;2.49;;
61473;SDS011;53694;49.784;30.150;2023-04-07T01:34:02;5.24;;;2.38;;
61473;SDS011;53694;49.784;30.150;2023-04-07T01:35:04;3.38;;;1.93;;
61473;SDS011;53694;49.784;30.150;2023-04-07T01:36:09;4.51;;;2.24;;
61473;SDS011;53694;49.784;30.150;2023-04-07T01:37:12;5.73;;;2.53;;
61473;SDS011;53694;49.784;30.150;2023-04-07T01:38:16;3.99;;;2.54;;
61473;SDS011;53694;49.784;30.150;2023-04-07T01:39:18;3.81;;;2.65;;
61473;SDS011;53694;49.784;30.150;2023-04-07T01:40:21;5.08;;;2.78;;
61473;SDS011;53694;49.784;30.150;2023-04-07T01:41:23;4.82;;;3.29;;
61473;SDS011;53694;49.784;30.150;2023-04-07T01:42:26;5.18;;;3.37;;
61473;SDS011;53694;49.784;30.150;2023-04-07T01:43:28;4.62;;;3.19;;
61473;SDS011;53694;49.784;30.150;2023-04-07T01:44:31;5.33;;;3.38;;
61473;SDS011;53694;49.784;30.150;2023-04-07T01:45:34;4.61;;;3.30;;
61473;SDS011;53694;49.784;30.150;2023-04-07T01:46:37;5.14;;;3.42;;
61473;SDS011;53694;49.784;30.150;2023-04-07T01:47:38;6.26;;;3.79;;
61473;SDS011;53694;49.784;30.150;2023-04-07T01:48:41;5.78;;;3.77;;
61473;SDS011;53694;49.784;30.150;2023-04-07T01:49:43;5.51;;;3.65;;
61473;SDS011;53694;49.784;30.150;2023-04-07T01:50:47;5.97;;;3.83;;
61473;SDS011;53694;49.784;30.150;2023-04-07T01:51:50;5.69;;;3.08;;
61473;SDS011;53694;49.784;30.150;2023-04-07T01:52:51;4.78;;;2.65;;
61473;SDS011;53694;49.784;30.150;2023-04-07T01:53:53;3.57;;;2.34;;
61473;SDS011;53694;49.784;30.150;2023-04-07T01:54:55;3.92;;;2.42;;
61473;SDS011;53694;49.784;30.150;2023-04-07T01:55:57;3.85;;;2.41;;
61473;SDS011;53694;49.784;30.150;2023-04-07T01:56:59;4.40;;;2.36;;
61473;SDS011;53694;49.784;30.150;2023-04-07T01:58:04;3.76;;;2.21;;
61473;SDS011;53694;49.784;30.150;2023-04-07T01:59:06;3.62;;;2.16;;
61473;SDS011;53694;49.784;30.150;2023-04-07T02:00:08;4.05;;;2.47;;
61473;SDS011;53694;49.784;30.150;2023-04-07T02:01:10;4.61;;;2.91;;
61473;SDS011;53694;49.784;30.150;2023-04-07T02:02:13;4.34;;;2.77;;
61473;SDS011;53694;49.784;30.150;2023-04-07T02:03:19;4.47;;;2.75;;
61473;SDS011;53694;49.784;30.150;2023-04-07T02:04:42;7.97;;;4.33;;
61473;SDS011;53694;49.784;30.150;2023-04-07T02:05:47;5.66;;;3.72;;
61473;SDS011;53694;49.784;30.150;2023-04-07T02:07:00;5.24;;;3.68;;
61473;SDS011;53694;49.784;30.150;2023-04-07T02:08:05;5.22;;;3.59;;
61473;SDS011;53694;49.784;30.150;2023-04-07T02:09:09;5.96;;;3.48;;
61473;SDS011;53694;49.784;30.150;2023-04-07T02:10:14;6.24;;;3.55;;
61473;SDS011;53694;49.784;30.150;2023-04-07T02:11:17;6.33;;;3.99;;
61473;SDS011;53694;49.784;30.150;2023-04-07T02:12:21;5.11;;;3.17;;
61473;SDS011;53694;49.784;30.150;2023-04-07T02:13:26;4.10;;;2.68;;
61473;SDS011;53694;49.784;30.150;2023-04-07T02:14:28;4.32;;;2.66;;
61473;SDS011;53694;49.784;30.150;2023-04-07T02:15:30;4.13;;;2.49;;
61473;SDS011;53694;49.784;30.150;2023-04-07T02:16:32;3.75;;;2.19;;
61473;SDS011;53694;49.784;30.150;2023-04-07T02:17:35;4.11;;;2.32;;
61473;SDS011;53694;49.784;30.150;2023-04-07T02:18:39;3.92;;;2.29;;
61473;SDS011;53694;49.784;30.150;2023-04-07T02:19:42;3.88;;;2.23;;
61473;SDS011;53694;49.784;30.150;2023-04-07T02:20:45;3.89;;;2.63;;
61473;SDS011;53694;49.784;30.150;2023-04-07T02:21:48;4.28;;;2.87;;
61473;SDS011;53694;49.784;30.150;2023-04-07T02:22:51;7.63;;;4.32;;
61473;SDS011;53694;49.784;30.150;2023-04-07T02:23:53;5.11;;;3.24;;
61473;SDS011;53694;49.784;30.150;2023-04-07T02:24:54;4.74;;;3.40;;
61473;SDS011;53694;49.784;30.150;2023-04-07T02:25:56;5.36;;;3.62;;
61473;SDS011;53694;49.784;30.150;2023-04-07T02:26:58;5.37;;;3.59;;
61473;SDS011;53694;49.784;30.150;2023-04-07T02:27:59;4.89;;;3.52;;
61473;SDS011;53694;49.784;30.150;2023-04-07T02:29:02;4.84;;;3.19;;
61473;SDS011;53694;49.784;30.150;2023-04-07T02:30:07;5.51;;;3.68;;
61473;SDS011;53694;49.784;30.150;2023-04-07T02:31:09;5.88;;;4.23;;
61473;SDS011;53694;49.784;30.150;2023-04-07T02:32:10;6.74;;;4.07;;
61473;SDS011;53694;49.784;30.150;2023-04-07T02:33:12;6.36;;;3.95;;
61473;SDS011;53694;49.784;30.150;2023-04-07T02:34:13;6.32;;;4.32;;
61473;SDS011;53694;49.784;30.150;2023-04-07T02:35:15;4.58;;;3.51;;
61473;SDS011;53694;49.784;30.150;2023-04-07T02:36:17;4.75;;;3.00;;
61473;SDS011;53694;49.784;30.150;2023-04-07T02:37:18;4.15;;;2.84;;
61473;SDS011;53694;49.784;30.150;2023-04-07T02:38:20;5.11;;;3.30;;
61473;SDS011;53694;49.784;30.150;2023-04-07T02:39:21;5.40;;;3.53;;
61473;SDS011;53694;49.784;30.150;2023-04-07T02:40:23;5.34;;;3.24;;
61473;SDS011;53694;49.784;30.150;2023-04-07T02:41:24;6.29;;;3.35;;
61473;SDS011;53694;49.784;30.150;2023-04-07T02:42:26;4.88;;;2.72;;
61473;SDS011;53694;49.784;30.150;2023-04-07T02:43:27;5.48;;;3.09;;
61473;SDS011;53694;49.784;30.150;2023-04-07T02:44:29;4.97;;;3.13;;
61473;SDS011;53694;49.784;30.150;2023-04-07T02:45:31;4.29;;;3.01;;
61473;SDS011;53694;49.784;30.150;2023-04-07T02:46:32;4.42;;;3.23;;
61473;SDS011;53694;49.784;30.150;2023-04-07T02:47:34;4.90;;;3.34;;
61473;SDS011;53694;49.784;30.150;2023-04-07T02:48:37;5.78;;;3.73;;
61473;SDS011;53694;49.784;30.150;2023-04-07T02:49:38;6.81;;;3.80;;
61473;SDS011;53694;49.784;30.150;2023-04-07T02:50:40;6.49;;;3.96;;
61473;SDS011;53694;49.784;30.150;2023-04-07T02:51:41;5.69;;;3.81;;
61473;SDS011;53694;49.784;30.150;2023-04-07T02:52:43;6.07;;;4.05;;
61473;SDS011;53694;49.784;30.150;2023-04-07T02:53:44;6.06;;;4.29;;
61473;SDS011;53694;49.784;30.150;2023-04-07T02:54:46;6.03;;;3.96;;
61473;SDS011;53694;49.784;30.150;2023-04-07T02:55:47;4.62;;;3.30;;
61473;SDS011;53694;49.784;30.150;2023-04-07T02:56:49;4.74;;;3.08;;
61473;SDS011;53694;49.784;30.150;2023-04-07T02:57:50;6.26;;;2.84;;
61473;SDS011;53694;49.784;30.150;2023-04-07T02:58:52;3.89;;;2.60;;
61473;SDS011;53694;49.784;30.150;2023-04-07T02:59:53;4.11;;;2.67;;
61473;SDS011;53694;49.784;30.150;2023-04-07T03:00:55;4.53;;;2.50;;
61473;SDS011;53694;49.784;30.150;2023-04-07T03:01:56;4.43;;;2.71;;
61473;SDS011;53694;49.784;30.150;2023-04-07T03:02:58;4.33;;;2.59;;
61473;SDS011;53694;49.784;30.150;2023-04-07T03:03:59;4.51;;;2.98;;
61473;SDS011;53694;49.784;30.150;2023-04-07T03:05:01;4.65;;;3.07;;
61473;SDS011;53694;49.784;30.150;2023-04-07T03:06:02;4.24;;;2.99;;
61473;SDS011;53694;49.784;30.150;2023-04-07T03:07:04;5.46;;;3.91;;
61473;SDS011;53694;49.784;30.150;2023-04-07T03:08:05;6.34;;;4.01;;
61473;SDS011;53694;49.784;30.150;2023-04-07T03:09:07;7.30;;;4.02;;
61473;SDS011;53694;49.784;30.150;2023-04-07T03:10:09;5.74;;;4.04;;
61473;SDS011;53694;49.784;30.150;2023-04-07T03:11:11;6.60;;;4.34;;
61473;SDS011;53694;49.784;30.150;2023-04-07T03:12:12;5.94;;;4.10;;
61473;SDS011;53694;49.784;30.150;2023-04-07T03:13:14;8.16;;;5.01;;
61473;SDS011;53694;49.784;30.150;2023-04-07T03:14:16;5.27;;;3.54;;
61473;SDS011;53694;49.784;30.150;2023-04-07T03:15:17;6.09;;;3.99;;
61473;SDS011;53694;49.784;30.150;2023-04-07T03:16:19;9.59;;;5.93;;
61473;SDS011;53694;49.784;30.150;2023-04-07T03:17:20;9.27;;;6.15;;
61473;SDS011;53694;49.784;30.150;2023-04-07T03:18:22;9.50;;;5.86;;
61473;SDS011;53694;49.784;30.150;2023-04-07T03:19:24;6.99;;;4.81;;
61473;SDS011;53694;49.784;30.150;2023-04-07T03:20:25;5.49;;;3.65;;
61473;SDS011;53694;49.784;30.150;2023-04-07T03:21:27;4.62;;;2.89;;
61473;SDS011;53694;49.784;30.150;2023-04-07T03:22:28;7.49;;;3.44;;
61473;SDS011;53694;49.784;30.150;2023-04-07T03:23:30;5.82;;;3.09;;
61473;SDS011;53694;49.784;30.150;2023-04-07T03:24:31;5.61;;;3.16;;
61473;SDS011;53694;49.784;30.150;2023-04-07T03:25:33;6.29;;;3.51;;
61473;SDS011;53694;49.784;30.150;2023-04-07T03:26:34;6.09;;;3.81;;
61473;SDS011;53694;49.784;30.150;2023-04-07T03:27:36;7.36;;;4.31;;
61473;SDS011;53694;49.784;30.150;2023-04-07T03:28:37;8.09;;;5.23;;
61473;SDS011;53694;49.784;30.150;2023-04-07T03:29:39;9.59;;;5.59;;
61473;SDS011;53694;49.784;30.150;2023-04-07T03:30:40;11.44;;;6.53;;
61473;SDS011;53694;49.784;30.150;2023-04-07T03:31:42;10.50;;;6.28;;
61473;SDS011;53694;49.784;30.150;2023-04-07T03:32:43;10.78;;;6.10;;
61473;SDS011;53694;49.784;30.150;2023-04-07T03:33:45;8.21;;;5.51;;
61473;SDS011;53694;49.784;30.150;2023-04-07T03:34:46;8.81;;;5.58;;
61473;SDS011;53694;49.784;30.150;2023-04-07T03:35:48;6.77;;;4.35;;
61473;SDS011;53694;49.784;30.150;2023-04-07T03:36:50;5.96;;;4.36;;
61473;SDS011;53694;49.784;30.150;2023-04-07T03:37:51;8.35;;;5.69;;
61473;SDS011;53694;49.784;30.150;2023-04-07T03:38:53;7.00;;;4.62;;
61473;SDS011;53694;49.784;30.150;2023-04-07T03:39:54;7.40;;;4.43;;
61473;SDS011;53694;49.784;30.150;2023-04-07T03:40:56;5.11;;;3.62;;
61473;SDS011;53694;49.784;30.150;2023-04-07T03:41:57;4.28;;;2.92;;
61473;SDS011;53694;49.784;30.150;2023-04-07T03:42:59;5.02;;;2.87;;
61473;SDS011;53694;49.784;30.150;2023-04-07T03:44:00;3.87;;;2.30;;
61473;SDS011;53694;49.784;30.150;2023-04-07T03:45:02;4.34;;;2.63;;
61473;SDS011;53694;49.784;30.150;2023-04-07T03:46:04;4.50;;;2.94;;
61473;SDS011;53694;49.784;30.150;2023-04-07T03:47:05;5.54;;;2.77;;
61473;SDS011;53694;49.784;30.150;2023-04-07T03:48:07;4.24;;;2.72;;
61473;SDS011;53694;49.784;30.150;2023-04-07T03:49:09;4.81;;;2.91;;
61473;SDS011;53694;49.784;30.150;2023-04-07T03:50:11;5.11;;;3.34;;
61473;SDS011;53694;49.784;30.150;2023-04-07T03:51:13;5.26;;;3.24;;
61473;SDS011;53694;49.784;30.150;2023-04-07T03:52:15;5.24;;;3.17;;
61473;SDS011;53694;49.784;30.150;2023-04-07T03:53:16;5.36;;;3.68;;
61473;SDS011;53694;49.784;30.150;2023-04-07T03:54:18;5.99;;;3.71;;
61473;SDS011;53694;49.784;30.150;2023-04-07T03:55:20;5.40;;;3.96;;
61473;SDS011;53694;49.784;30.150;2023-04-07T03:56:22;6.43;;;4.31;;
61473;SDS011;53694;49.784;30.150;2023-04-07T03:57:24;6.88;;;4.71;;
61473;SDS011;53694;49.784;30.150;2023-04-07T03:58:25;6.86;;;4.56;;
61473;SDS011;53694;49.784;30.150;2023-04-07T03:59:27;6.38;;;4.37;;
61473;SDS011;53694;49.784;30.150;2023-04-07T04:00:29;7.85;;;5.11;;
61473;SDS011;53694;49.784;30.150;2023-04-07T04:01:30;8.21;;;5.20;;
61473;SDS011;53694;49.784;30.150;2023-04-07T04:02:32;7.13;;;4.59;;
61473;SDS011;53694;49.784;30.150;2023-04-07T04:03:34;5.38;;;3.44;;
61473;SDS011;53694;49.784;30.150;2023-04-07T04:04:35;5.77;;;3.45;;
61473;SDS011;53694;49.784;30.150;2023-04-07T04:05:36;4.97;;;3.02;;
61473;SDS011;53694;49.784;30.150;2023-04-07T04:06:38;15.13;;;4.29;;
61473;SDS011;53694;49.784;30.150;2023-04-07T04:07:40;4.81;;;2.81;;
61473;SDS011;53694;49.784;30.150;2023-04-07T04:08:41;4.91;;;2.61;;
61473;SDS011;53694;49.784;30.150;2023-04-07T04:09:43;5.34;;;3.03;;
61473;SDS011;53694;49.784;30.150;2023-04-07T04:10:44;4.80;;;2.93;;
61473;SDS011;53694;49.784;30.150;2023-04-07T04:11:46;9.47;;;2.96;;
61473;SDS011;53694;49.784;30.150;2023-04-07T04:12:47;5.16;;;2.89;;
61473;SDS011;53694;49.784;30.150;2023-04-07T04:13:49;6.44;;;3.37;;
61473;SDS011;53694;49.784;30.150;2023-04-07T04:14:51;5.55;;;3.94;;
61473;SDS011;53694;49.784;30.150;2023-04-07T04:15:52;7.11;;;3.88;;
61473;SDS011;53694;49.784;30.150;2023-04-07T04:16:54;5.94;;;4.16;;
61473;SDS011;53694;49.784;30.150;2023-04-07T04:17:55;5.95;;;4.33;;
61473;SDS011;53694;49.784;30.150;2023-04-07T04:18:57;6.46;;;4.55;;
61473;SDS011;53694;49.784;30.150;2023-04-07T04:19:58;5.81;;;4.09;;
61473;SDS011;53694;49.784;30.150;2023-04-07T04:21:00;7.31;;;3.89;;
61473;SDS011;53694;49.784;30.150;2023-04-07T04:22:02;7.99;;;4.77;;
61473;SDS011;53694;49.784;30.150;2023-04-07T04:23:03;5.84;;;4.16;;
61473;SDS011;53694;49.784;30.150;2023-04-07T04:24:04;4.35;;;2.93;;
61473;SDS011;53694;49.784;30.150;2023-04-07T04:25:06;4.49;;;2.88;;
61473;SDS011;53694;49.784;30.150;2023-04-07T04:26:08;6.17;;;3.23;;
61473;SDS011;53694;49.784;30.150;2023-04-07T04:27:10;5.32;;;3.19;;
61473;SDS011;53694;49.784;30.150;2023-04-07T04:28:11;7.93;;;3.03;;
61473;SDS011;53694;49.784;30.150;2023-04-07T04:29:13;6.38;;;3.39;;
61473;SDS011;53694;49.784;30.150;2023-04-07T04:30:15;5.67;;;3.03;;
61473;SDS011;53694;49.784;30.150;2023-04-07T04:31:17;4.88;;;2.99;;
61473;SDS011;53694;49.784;30.150;2023-04-07T04:32:18;4.56;;;3.04;;
61473;SDS011;53694;49.784;30.150;2023-04-07T04:33:20;4.87;;;3.05;;
61473;SDS011;53694;49.784;30.150;2023-04-07T04:34:22;8.69;;;4.09;;
61473;SDS011;53694;49.784;30.150;2023-04-07T04:35:23;6.61;;;3.86;;
61473;SDS011;53694;49.784;30.150;2023-04-07T04:36:25;10.91;;;4.69;;
61473;SDS011;53694;49.784;30.150;2023-04-07T04:37:27;6.58;;;4.91;;
61473;SDS011;53694;49.784;30.150;2023-04-07T04:38:34;9.58;;;5.12;;
61473;SDS011;53694;49.784;30.150;2023-04-07T04:39:36;11.39;;;5.09;;
61473;SDS011;53694;49.784;30.150;2023-04-07T04:40:37;6.81;;;4.59;;
61473;SDS011;53694;49.784;30.150;2023-04-07T04:41:39;9.81;;;5.54;;
61473;SDS011;53694;49.784;30.150;2023-04-07T04:42:40;8.59;;;5.46;;
61473;SDS011;53694;49.784;30.150;2023-04-07T04:43:42;8.02;;;4.78;;
61473;SDS011;53694;49.784;30.150;2023-04-07T04:44:43;9.22;;;5.84;;
61473;SDS011;53694;49.784;30.150;2023-04-07T04:45:45;9.39;;;5.15;;
61473;SDS011;53694;49.784;30.150;2023-04-07T04:46:47;8.61;;;4.17;;
61473;SDS011;53694;49.784;30.150;2023-04-07T04:47:49;8.04;;;4.19;;
61473;SDS011;53694;49.784;30.150;2023-04-07T04:48:50;7.46;;;3.51;;
61473;SDS011;53694;49.784;30.150;2023-04-07T04:49:52;6.66;;;3.74;;
61473;SDS011;53694;49.784;30.150;2023-04-07T04:50:53;8.44;;;4.29;;
61473;SDS011;53694;49.784;30.150;2023-04-07T04:51:55;11.01;;;5.17;;
61473;SDS011;53694;49.784;30.150;2023-04-07T04:52:56;11.38;;;4.84;;
61473;SDS011;53694;49.784;30.150;2023-04-07T04:53:58;11.29;;;5.02;;
61473;SDS011;53694;49.784;30.150;2023-04-07T04:54:59;9.99;;;4.99;;
61473;SDS011;53694;49.784;30.150;2023-04-07T04:56:01;11.24;;;4.91;;
61473;SDS011;53694;49.784;30.150;2023-04-07T04:57:03;9.75;;;4.75;;
61473;SDS011;53694;49.784;30.150;2023-04-07T04:58:04;11.06;;;5.26;;
61473;SDS011;53694;49.784;30.150;2023-04-07T04:59:06;10.79;;;5.03;;
61473;SDS011;53694;49.784;30.150;2023-04-07T05:00:07;7.92;;;4.36;;
61473;SDS011;53694;49.784;30.150;2023-04-07T05:01:10;14.23;;;4.87;;
61473;SDS011;53694;49.784;30.150;2023-04-07T05:02:14;8.58;;;5.28;;
61473;SDS011;53694;49.784;30.150;2023-04-07T05:03:15;8.50;;;4.66;;
61473;SDS011;53694;49.784;30.150;2023-04-07T05:04:17;7.74;;;5.59;;
61473;SDS011;53694;49.784;30.150;2023-04-07T05:05:18;8.41;;;5.42;;
61473;SDS011;53694;49.784;30.150;2023-04-07T05:06:20;6.33;;;4.06;;
61473;SDS011;53694;49.784;30.150;2023-04-07T05:07:22;6.81;;;3.65;;
61473;SDS011;53694;49.784;30.150;2023-04-07T05:08:23;6.15;;;3.57;;
61473;SDS011;53694;49.784;30.150;2023-04-07T05:09:25;6.11;;;4.03;;
61473;SDS011;53694;49.784;30.150;2023-04-07T05:10:27;7.58;;;3.52;;
61473;SDS011;53694;49.784;30.150;2023-04-07T05:11:28;5.46;;;3.04;;
61473;SDS011;53694;49.784;30.150;2023-04-07T05:12:29;4.94;;;2.99;;
61473;SDS011;53694;49.784;30.150;2023-04-07T05:13:31;4.84;;;2.73;;
61473;SDS011;53694;49.784;30.150;2023-04-07T05:14:32;6.11;;;3.33;;
61473;SDS011;53694;49.784;30.150;2023-04-07T05:15:34;4.91;;;3.04;;
61473;SDS011;53694;49.784;30.150;2023-04-07T05:16:35;5.05;;;3.51;;
61473;SDS011;53694;49.784;30.150;2023-04-07T05:17:37;6.54;;;3.41;;
61473;SDS011;53694;49.784;30.150;2023-04-07T05:18:38;4.73;;;3.15;;
61473;SDS011;53694;49.784;30.150;2023-04-07T05:19:40;5.31;;;3.50;;
61473;SDS011;53694;49.784;30.150;2023-04-07T05:20:42;5.61;;;3.58;;
61473;SDS011;53694;49.784;30.150;2023-04-07T05:21:44;5.74;;;3.49;;
61473;SDS011;53694;49.784;30.150;2023-04-07T05:22:46;5.70;;;3.93;;
61473;SDS011;53694;49.784;30.150;2023-04-07T05:23:47;6.43;;;4.06;;
61473;SDS011;53694;49.784;30.150;2023-04-07T05:24:49;5.61;;;3.89;;
61473;SDS011;53694;49.784;30.150;2023-04-07T05:25:50;5.64;;;4.09;;
61473;SDS011;53694;49.784;30.150;2023-04-07T05:26:52;6.21;;;4.37;;
61473;SDS011;53694;49.784;30.150;2023-04-07T05:27:53;6.31;;;3.91;;
61473;SDS011;53694;49.784;30.150;2023-04-07T05:28:55;6.18;;;4.22;;
61473;SDS011;53694;49.784;30.150;2023-04-07T05:29:56;5.84;;;4.08;;
61473;SDS011;53694;49.784;30.150;2023-04-07T05:30:58;5.08;;;3.45;;
61473;SDS011;53694;49.784;30.150;2023-04-07T05:31:59;5.48;;;2.99;;
61473;SDS011;53694;49.784;30.150;2023-04-07T05:33:01;5.01;;;2.77;;
61473;SDS011;53694;49.784;30.150;2023-04-07T05:34:02;5.31;;;2.85;;
61473;SDS011;53694;49.784;30.150;2023-04-07T05:35:04;3.69;;;2.20;;
61473;SDS011;53694;49.784;30.150;2023-04-07T05:36:06;5.02;;;2.87;;
61473;SDS011;53694;49.784;30.150;2023-04-07T05:37:08;5.33;;;3.01;;
61473;SDS011;53694;49.784;30.150;2023-04-07T05:38:10;5.61;;;3.26;;
61473;SDS011;53694;49.784;30.150;2023-04-07T05:39:11;5.61;;;3.59;;
61473;SDS011;53694;49.784;30.150;2023-04-07T05:40:13;10.49;;;3.88;;
61473;SDS011;53694;49.784;30.150;2023-04-07T05:41:14;11.23;;;3.84;;
61473;SDS011;53694;49.784;30.150;2023-04-07T05:42:16;6.10;;;3.86;;
61473;SDS011;53694;49.784;30.150;2023-04-07T05:43:17;7.09;;;3.75;;
61473;SDS011;53694;49.784;30.150;2023-04-07T05:44:19;5.26;;;3.49;;
61473;SDS011;53694;49.784;30.150;2023-04-07T05:45:20;5.66;;;3.99;;
61473;SDS011;53694;49.784;30.150;2023-04-07T05:46:22;7.39;;;4.39;;
61473;SDS011;53694;49.784;30.150;2023-04-07T05:47:23;8.25;;;4.82;;
61473;SDS011;53694;49.784;30.150;2023-04-07T05:48:25;6.35;;;4.54;;
61473;SDS011;53694;49.784;30.150;2023-04-07T05:49:26;7.80;;;5.05;;
61473;SDS011;53694;49.784;30.150;2023-04-07T05:50:28;8.00;;;4.68;;
61473;SDS011;53694;49.784;30.150;2023-04-07T05:51:29;6.71;;;4.07;;
61473;SDS011;53694;49.784;30.150;2023-04-07T05:52:33;6.29;;;4.14;;
61473;SDS011;53694;49.784;30.150;2023-04-07T05:53:34;6.91;;;3.72;;
61473;SDS011;53694;49.784;30.150;2023-04-07T05:54:36;5.75;;;3.43;;
61473;SDS011;53694;49.784;30.150;2023-04-07T05:55:37;6.06;;;3.02;;
61473;SDS011;53694;49.784;30.150;2023-04-07T05:56:41;6.76;;;3.46;;
61473;SDS011;53694;49.784;30.150;2023-04-07T05:57:42;5.42;;;3.55;;
61473;SDS011;53694;49.784;30.150;2023-04-07T05:58:44;8.46;;;4.11;;
61473;SDS011;53694;49.784;30.150;2023-04-07T05:59:45;7.59;;;4.11;;
61473;SDS011;53694;49.784;30.150;2023-04-07T06:00:47;6.99;;;4.49;;
61473;SDS011;53694;49.784;30.150;2023-04-07T06:01:48;7.64;;;5.22;;
61473;SDS011;53694;49.784;30.150;2023-04-07T06:02:50;6.43;;;4.18;;
61473;SDS011;53694;49.784;30.150;2023-04-07T06:03:51;6.77;;;4.61;;
61473;SDS011;53694;49.784;30.150;2023-04-07T06:04:53;7.02;;;5.12;;
61473;SDS011;53694;49.784;30.150;2023-04-07T06:05:54;8.33;;;5.79;;
61473;SDS011;53694;49.784;30.150;2023-04-07T06:06:57;10.23;;;6.94;;
61473;SDS011;53694;49.784;30.150;2023-04-07T06:07:59;9.36;;;6.04;;
61473;SDS011;53694;49.784;30.150;2023-04-07T06:09:00;9.47;;;5.84;;
61473;SDS011;53694;49.784;30.150;2023-04-07T06:10:02;9.41;;;6.03;;
61473;SDS011;53694;49.784;30.150;2023-04-07T06:11:04;8.57;;;6.03;;
61473;SDS011;53694;49.784;30.150;2023-04-07T06:12:05;9.95;;;5.91;;
61473;SDS011;53694;49.784;30.150;2023-04-07T06:13:07;9.65;;;6.74;;
61473;SDS011;53694;49.784;30.150;2023-04-07T06:14:08;10.21;;;6.79;;
61473;SDS011;53694;49.784;30.150;2023-04-07T06:15:10;19.96;;;9.66;;
61473;SDS011;53694;49.784;30.150;2023-04-07T06:16:12;10.27;;;6.47;;